sensor_id;sensor_type;location;lat;lon;timestamp;temperature;humidity
23731;DHT22;12046;44.702;10.622;2022-10-13T00:01:11;16.90;99.90
23731;DHT22;12046;44.702;10.622;2022-10-13T00:03:41;16.90;99.90
23731;DHT22;12046;44.702;10.622;2022-10-13T00:06:11;16.90;99.90
23731;DHT22;12046;44.702;10.622;2022-10-13T00:08:38;16.90;99.90
23731;DHT22;12046;44.702;10.622;2022-10-13T00:13:40;17.00;99.90
23731;DHT22;12046;44.702;10.622;2022-10-13T00:16:07;17.00;99.90
23731;DHT22;12046;44.702;10.622;2022-10-13T00:18:33;17.00;99.90
23731;DHT22;12046;44.702;10.622;2022-10-13T00:20:59;17.10;99.90
23731;DHT22;12046;44.702;10.622;2022-10-13T00:23:25;17.10;99.90
23731;DHT22;12046;44.702;10.622;2022-10-13T00:25:52;17.10;99.90
23731;DHT22;12046;44.702;10.622;2022-10-13T00:28:18;17.10;99.90
23731;DHT22;12046;44.702;10.622;2022-10-13T00:30:45;17.10;99.90
23731;DHT22;12046;44.702;10.622;2022-10-13T00:33:12;17.00;99.90
23731;DHT22;12046;44.702;10.622;2022-10-13T00:35:43;17.00;99.90
23731;DHT22;12046;44.702;10.622;2022-10-13T00:38:10;17.10;99.90
23731;DHT22;12046;44.702;10.622;2022-10-13T00:40:50;17.10;99.90
23731;DHT22;12046;44.702;10.622;2022-10-13T00:45:44;17.10;99.90
23731;DHT22;12046;44.702;10.622;2022-10-13T00:48:10;17.10;99.90
23731;DHT22;12046;44.702;10.622;2022-10-13T00:50:39;17.10;99.90
23731;DHT22;12046;44.702;10.622;2022-10-13T00:53:06;17.10;99.90
23731;DHT22;12046;44.702;10.622;2022-10-13T00:55:34;17.10;99.90
23731;DHT22;12046;44.702;10.622;2022-10-13T00:58:04;17.10;99.90
23731;DHT22;12046;44.702;10.622;2022-10-13T01:00:32;17.00;99.90
23731;DHT22;12046;44.702;10.622;2022-10-13T01:02:59;17.00;99.90
23731;DHT22;12046;44.702;10.622;2022-10-13T01:05:26;16.90;99.90
23731;DHT22;12046;44.702;10.622;2022-10-13T01:07:52;16.80;99.90
23731;DHT22;12046;44.702;10.622;2022-10-13T01:21:58;16.50;99.90
23731;DHT22;12046;44.702;10.622;2022-10-13T01:27:00;16.40;99.90
23731;DHT22;12046;44.702;10.622;2022-10-13T01:34:58;16.30;99.90
23731;DHT22;12046;44.702;10.622;2022-10-13T01:37:33;16.30;99.90
23731;DHT22;12046;44.702;10.622;2022-10-13T01:42:55;16.10;99.90
23731;DHT22;12046;44.702;10.622;2022-10-13T01:45:29;16.00;99.90
23731;DHT22;12046;44.702;10.622;2022-10-13T01:47:58;16.00;99.90
23731;DHT22;12046;44.702;10.622;2022-10-13T01:50:27;16.00;99.90
23731;DHT22;12046;44.702;10.622;2022-10-13T01:52:53;16.00;99.90
23731;DHT22;12046;44.702;10.622;2022-10-13T01:55:20;16.00;99.90
23731;DHT22;12046;44.702;10.622;2022-10-13T01:57:46;16.00;99.90
23731;DHT22;12046;44.702;10.622;2022-10-13T02:00:15;16.00;99.90
23731;DHT22;12046;44.702;10.622;2022-10-13T02:06:02;16.00;99.90
23731;DHT22;12046;44.702;10.622;2022-10-13T02:11:18;16.00;99.90
23731;DHT22;12046;44.702;10.622;2022-10-13T02:16:38;16.10;99.90
23731;DHT22;12046;44.702;10.622;2022-10-13T02:19:08;16.10;99.90
23731;DHT22;12046;44.702;10.622;2022-10-13T02:21:34;16.10;99.90
23731;DHT22;12046;44.702;10.622;2022-10-13T02:24:04;16.10;99.90
23731;DHT22;12046;44.702;10.622;2022-10-13T02:26:32;16.10;99.90
23731;DHT22;12046;44.702;10.622;2022-10-13T02:28:59;16.10;99.90
23731;DHT22;12046;44.702;10.622;2022-10-13T02:31:31;16.10;99.90
23731;DHT22;12046;44.702;10.622;2022-10-13T02:33:57;16.00;99.90
23731;DHT22;12046;44.702;10.622;2022-10-13T02:36:23;16.00;99.90
23731;DHT22;12046;44.702;10.622;2022-10-13T02:38:49;15.90;99.90
23731;DHT22;12046;44.702;10.622;2022-10-13T02:41:15;15.90;99.90
23731;DHT22;12046;44.702;10.622;2022-10-13T02:43:41;15.80;99.90
23731;DHT22;12046;44.702;10.622;2022-10-13T02:46:07;15.80;99.90
23731;DHT22;12046;44.702;10.622;2022-10-13T02:48:33;15.80;99.90
23731;DHT22;12046;44.702;10.622;2022-10-13T02:50:59;15.80;99.90
23731;DHT22;12046;44.702;10.622;2022-10-13T02:53:25;15.80;99.90
23731;DHT22;12046;44.702;10.622;2022-10-13T02:55:50;15.80;99.90
23731;DHT22;12046;44.702;10.622;2022-10-13T02:58:16;15.80;99.90
23731;DHT22;12046;44.702;10.622;2022-10-13T03:00:42;15.90;99.90
23731;DHT22;12046;44.702;10.622;2022-10-13T03:03:10;15.90;99.90
23731;DHT22;12046;44.702;10.622;2022-10-13T03:05:36;15.90;99.90
23731;DHT22;12046;44.702;10.622;2022-10-13T03:08:02;15.90;99.90
23731;DHT22;12046;44.702;10.622;2022-10-13T03:10:28;16.00;99.90
23731;DHT22;12046;44.702;10.622;2022-10-13T03:12:55;15.90;99.90
23731;DHT22;12046;44.702;10.622;2022-10-13T03:15:21;15.90;99.90
23731;DHT22;12046;44.702;10.622;2022-10-13T03:17:47;15.90;99.90
23731;DHT22;12046;44.702;10.622;2022-10-13T03:20:13;15.90;99.90
23731;DHT22;12046;44.702;10.622;2022-10-13T03:22:39;15.90;99.90
23731;DHT22;12046;44.702;10.622;2022-10-13T03:25:06;15.90;99.90
23731;DHT22;12046;44.702;10.622;2022-10-13T03:27:32;15.90;99.90
23731;DHT22;12046;44.702;10.622;2022-10-13T03:29:57;15.90;99.90
23731;DHT22;12046;44.702;10.622;2022-10-13T03:32:23;15.80;99.90
23731;DHT22;12046;44.702;10.622;2022-10-13T03:34:49;15.80;99.90
23731;DHT22;12046;44.702;10.622;2022-10-13T03:37:16;15.70;99.90
23731;DHT22;12046;44.702;10.622;2022-10-13T03:39:42;15.70;99.90
23731;DHT22;12046;44.702;10.622;2022-10-13T03:42:08;15.70;99.90
23731;DHT22;12046;44.702;10.622;2022-10-13T03:44:34;15.60;99.90
23731;DHT22;12046;44.702;10.622;2022-10-13T03:47:00;15.50;99.90
23731;DHT22;12046;44.702;10.622;2022-10-13T03:49:26;15.40;99.90
23731;DHT22;12046;44.702;10.622;2022-10-13T03:51:52;15.30;99.90
23731;DHT22;12046;44.702;10.622;2022-10-13T03:54:18;15.30;99.90
23731;DHT22;12046;44.702;10.622;2022-10-13T03:56:44;15.20;99.90
23731;DHT22;12046;44.702;10.622;2022-10-13T03:59:11;15.10;99.90
23731;DHT22;12046;44.702;10.622;2022-10-13T04:01:38;15.00;99.90
23731;DHT22;12046;44.702;10.622;2022-10-13T04:04:04;15.00;99.90
23731;DHT22;12046;44.702;10.622;2022-10-13T04:06:30;14.90;99.90
23731;DHT22;12046;44.702;10.622;2022-10-13T04:08:56;14.90;99.90
23731;DHT22;12046;44.702;10.622;2022-10-13T04:11:22;14.90;99.90
23731;DHT22;12046;44.702;10.622;2022-10-13T04:13:48;14.90;99.90
23731;DHT22;12046;44.702;10.622;2022-10-13T04:16:17;14.90;99.90
23731;DHT22;12046;44.702;10.622;2022-10-13T04:18:44;14.90;99.90
23731;DHT22;12046;44.702;10.622;2022-10-13T04:21:13;14.90;99.90
23731;DHT22;12046;44.702;10.622;2022-10-13T04:23:39;14.90;99.90
23731;DHT22;12046;44.702;10.622;2022-10-13T04:26:05;14.90;99.90
23731;DHT22;12046;44.702;10.622;2022-10-13T04:28:32;14.90;99.90
23731;DHT22;12046;44.702;10.622;2022-10-13T04:31:01;14.90;99.90
23731;DHT22;12046;44.702;10.622;2022-10-13T04:33:28;14.80;99.90
23731;DHT22;12046;44.702;10.622;2022-10-13T04:35:54;14.80;99.90
23731;DHT22;12046;44.702;10.622;2022-10-13T04:38:20;14.80;99.90
23731;DHT22;12046;44.702;10.622;2022-10-13T04:40:46;14.80;99.90
23731;DHT22;12046;44.702;10.622;2022-10-13T04:43:12;14.80;99.90
23731;DHT22;12046;44.702;10.622;2022-10-13T04:45:40;14.80;99.90
23731;DHT22;12046;44.702;10.622;2022-10-13T04:48:06;14.80;99.90
23731;DHT22;12046;44.702;10.622;2022-10-13T04:50:32;14.70;99.90
23731;DHT22;12046;44.702;10.622;2022-10-13T04:52:58;14.60;99.90
23731;DHT22;12046;44.702;10.622;2022-10-13T04:55:24;14.60;99.90
23731;DHT22;12046;44.702;10.622;2022-10-13T04:57:50;14.50;99.90
23731;DHT22;12046;44.702;10.622;2022-10-13T05:00:16;14.40;99.90
23731;DHT22;12046;44.702;10.622;2022-10-13T05:02:44;14.40;99.90
23731;DHT22;12046;44.702;10.622;2022-10-13T05:05:10;14.40;99.90
23731;DHT22;12046;44.702;10.622;2022-10-13T05:07:36;14.40;99.90
23731;DHT22;12046;44.702;10.622;2022-10-13T05:10:12;14.30;99.90
23731;DHT22;12046;44.702;10.622;2022-10-13T05:12:40;14.20;99.90
23731;DHT22;12046;44.702;10.622;2022-10-13T05:15:06;14.20;99.90
23731;DHT22;12046;44.702;10.622;2022-10-13T05:17:32;14.10;99.90
23731;DHT22;12046;44.702;10.622;2022-10-13T05:19:58;14.10;99.90
23731;DHT22;12046;44.702;10.622;2022-10-13T05:22:26;14.10;99.90
23731;DHT22;12046;44.702;10.622;2022-10-13T05:24:52;14.10;99.90
23731;DHT22;12046;44.702;10.622;2022-10-13T05:27:18;14.00;99.90
23731;DHT22;12046;44.702;10.622;2022-10-13T05:29:47;14.10;99.90
23731;DHT22;12046;44.702;10.622;2022-10-13T05:32:13;14.10;99.90
23731;DHT22;12046;44.702;10.622;2022-10-13T05:34:39;14.10;99.90
23731;DHT22;12046;44.702;10.622;2022-10-13T05:37:05;14.10;99.90
23731;DHT22;12046;44.702;10.622;2022-10-13T05:39:42;14.10;99.90
23731;DHT22;12046;44.702;10.622;2022-10-13T05:42:08;14.10;99.90
23731;DHT22;12046;44.702;10.622;2022-10-13T05:44:34;14.10;99.90
23731;DHT22;12046;44.702;10.622;2022-10-13T05:47:01;14.10;99.90
23731;DHT22;12046;44.702;10.622;2022-10-13T05:49:27;14.10;99.90
23731;DHT22;12046;44.702;10.622;2022-10-13T05:51:57;14.10;99.90
23731;DHT22;12046;44.702;10.622;2022-10-13T05:54:35;14.10;99.90
23731;DHT22;12046;44.702;10.622;2022-10-13T05:57:12;14.00;99.90
23731;DHT22;12046;44.702;10.622;2022-10-13T05:59:42;14.10;99.90
23731;DHT22;12046;44.702;10.622;2022-10-13T06:02:11;14.10;99.90
23731;DHT22;12046;44.702;10.622;2022-10-13T06:04:43;14.20;99.90
23731;DHT22;12046;44.702;10.622;2022-10-13T06:07:10;14.30;99.90
23731;DHT22;12046;44.702;10.622;2022-10-13T06:09:37;14.30;99.90
23731;DHT22;12046;44.702;10.622;2022-10-13T06:12:05;14.50;99.90
23731;DHT22;12046;44.702;10.622;2022-10-13T06:14:31;14.60;99.90
23731;DHT22;12046;44.702;10.622;2022-10-13T06:16:57;14.60;99.90
23731;DHT22;12046;44.702;10.622;2022-10-13T06:19:23;14.70;99.90
23731;DHT22;12046;44.702;10.622;2022-10-13T06:21:49;14.80;99.90
23731;DHT22;12046;44.702;10.622;2022-10-13T06:24:15;14.90;99.90
23731;DHT22;12046;44.702;10.622;2022-10-13T06:26:41;15.00;99.90
23731;DHT22;12046;44.702;10.622;2022-10-13T06:29:07;15.10;99.90
23731;DHT22;12046;44.702;10.622;2022-10-13T06:31:33;15.30;99.90
23731;DHT22;12046;44.702;10.622;2022-10-13T06:33:59;15.40;99.90
23731;DHT22;12046;44.702;10.622;2022-10-13T06:36:25;15.50;99.90
23731;DHT22;12046;44.702;10.622;2022-10-13T06:38:51;15.70;99.90
23731;DHT22;12046;44.702;10.622;2022-10-13T06:41:17;15.90;99.90
23731;DHT22;12046;44.702;10.622;2022-10-13T06:43:43;16.10;99.90
23731;DHT22;12046;44.702;10.622;2022-10-13T06:46:13;16.30;99.90
23731;DHT22;12046;44.702;10.622;2022-10-13T06:48:39;16.50;99.90
23731;DHT22;12046;44.702;10.622;2022-10-13T06:51:07;16.80;99.90
23731;DHT22;12046;44.702;10.622;2022-10-13T06:53:34;17.00;99.90
23731;DHT22;12046;44.702;10.622;2022-10-13T06:56:04;17.20;99.90
23731;DHT22;12046;44.702;10.622;2022-10-13T06:58:31;17.40;99.90
23731;DHT22;12046;44.702;10.622;2022-10-13T07:00:57;17.60;99.90
23731;DHT22;12046;44.702;10.622;2022-10-13T07:03:23;17.80;99.90
23731;DHT22;12046;44.702;10.622;2022-10-13T07:05:49;18.00;99.90
23731;DHT22;12046;44.702;10.622;2022-10-13T07:08:15;18.20;99.90
23731;DHT22;12046;44.702;10.622;2022-10-13T07:10:42;18.30;99.90
23731;DHT22;12046;44.702;10.622;2022-10-13T07:13:08;18.50;99.90
23731;DHT22;12046;44.702;10.622;2022-10-13T07:15:38;18.60;99.90
23731;DHT22;12046;44.702;10.622;2022-10-13T07:18:05;18.70;99.90
23731;DHT22;12046;44.702;10.622;2022-10-13T07:20:32;18.90;99.90
23731;DHT22;12046;44.702;10.622;2022-10-13T07:22:58;19.00;99.90
23731;DHT22;12046;44.702;10.622;2022-10-13T07:25:25;19.20;99.90
23731;DHT22;12046;44.702;10.622;2022-10-13T07:27:51;19.40;99.90
23731;DHT22;12046;44.702;10.622;2022-10-13T07:30:17;19.60;99.90
23731;DHT22;12046;44.702;10.622;2022-10-13T07:32:43;19.70;99.90
23731;DHT22;12046;44.702;10.622;2022-10-13T07:35:10;19.90;99.90
23731;DHT22;12046;44.702;10.622;2022-10-13T07:37:37;20.00;99.90
23731;DHT22;12046;44.702;10.622;2022-10-13T07:40:04;20.10;99.90
23731;DHT22;12046;44.702;10.622;2022-10-13T07:42:30;20.30;99.90
23731;DHT22;12046;44.702;10.622;2022-10-13T07:44:57;20.40;99.90
23731;DHT22;12046;44.702;10.622;2022-10-13T07:47:23;20.50;99.90
23731;DHT22;12046;44.702;10.622;2022-10-13T07:49:49;20.70;99.90
23731;DHT22;12046;44.702;10.622;2022-10-13T07:52:15;20.80;99.90
23731;DHT22;12046;44.702;10.622;2022-10-13T07:54:41;20.90;99.90
23731;DHT22;12046;44.702;10.622;2022-10-13T07:57:07;21.00;99.90
23731;DHT22;12046;44.702;10.622;2022-10-13T07:59:33;21.20;99.90
23731;DHT22;12046;44.702;10.622;2022-10-13T08:01:59;21.20;99.90
23731;DHT22;12046;44.702;10.622;2022-10-13T08:04:30;21.40;99.90
23731;DHT22;12046;44.702;10.622;2022-10-13T08:06:56;21.60;99.90
23731;DHT22;12046;44.702;10.622;2022-10-13T08:09:24;21.80;99.90
23731;DHT22;12046;44.702;10.622;2022-10-13T08:11:50;21.90;99.90
23731;DHT22;12046;44.702;10.622;2022-10-13T08:14:17;22.00;99.90
23731;DHT22;12046;44.702;10.622;2022-10-13T08:16:43;22.20;99.90
23731;DHT22;12046;44.702;10.622;2022-10-13T08:19:11;22.30;99.90
23731;DHT22;12046;44.702;10.622;2022-10-13T08:21:38;22.30;99.90
23731;DHT22;12046;44.702;10.622;2022-10-13T08:24:10;22.30;99.90
23731;DHT22;12046;44.702;10.622;2022-10-13T08:26:37;22.40;99.90
23731;DHT22;12046;44.702;10.622;2022-10-13T08:29:04;22.50;99.90
23731;DHT22;12046;44.702;10.622;2022-10-13T08:31:30;22.70;99.60
23731;DHT22;12046;44.702;10.622;2022-10-13T08:33:56;22.80;99.60
23731;DHT22;12046;44.702;10.622;2022-10-13T08:36:26;22.80;99.60
23731;DHT22;12046;44.702;10.622;2022-10-13T08:38:53;22.90;99.20
23731;DHT22;12046;44.702;10.622;2022-10-13T08:41:23;23.00;99.00
23731;DHT22;12046;44.702;10.622;2022-10-13T08:44:00;23.10;99.10
23731;DHT22;12046;44.702;10.622;2022-10-13T08:49:28;23.50;99.00
23731;DHT22;12046;44.702;10.622;2022-10-13T08:51:56;23.80;98.50
23731;DHT22;12046;44.702;10.622;2022-10-13T08:54:24;24.10;98.00
23731;DHT22;12046;44.702;10.622;2022-10-13T08:56:51;24.40;97.40
23731;DHT22;12046;44.702;10.622;2022-10-13T08:59:17;24.80;97.00
23731;DHT22;12046;44.702;10.622;2022-10-13T09:01:44;25.30;96.40
23731;DHT22;12046;44.702;10.622;2022-10-13T09:04:33;26.10;95.70
23731;DHT22;12046;44.702;10.622;2022-10-13T09:07:05;27.00;94.60
23731;DHT22;12046;44.702;10.622;2022-10-13T09:09:36;28.00;93.20
23731;DHT22;12046;44.702;10.622;2022-10-13T09:12:03;28.90;92.20
23731;DHT22;12046;44.702;10.622;2022-10-13T09:14:33;29.50;91.20
23731;DHT22;12046;44.702;10.622;2022-10-13T09:17:13;30.10;90.60
23731;DHT22;12046;44.702;10.622;2022-10-13T09:19:39;30.90;89.50
23731;DHT22;12046;44.702;10.622;2022-10-13T09:22:36;31.50;87.40
23731;DHT22;12046;44.702;10.622;2022-10-13T09:30:35;32.50;83.30
23731;DHT22;12046;44.702;10.622;2022-10-13T09:36:04;32.90;81.10
23731;DHT22;12046;44.702;10.622;2022-10-13T09:38:25;33.20;79.90
23731;DHT22;12046;44.702;10.622;2022-10-13T09:41:01;33.50;79.10
23731;DHT22;12046;44.702;10.622;2022-10-13T09:46:01;33.70;78.10
23731;DHT22;12046;44.702;10.622;2022-10-13T09:48:34;34.30;76.80
23731;DHT22;12046;44.702;10.622;2022-10-13T09:51:01;35.00;75.30
23731;DHT22;12046;44.702;10.622;2022-10-13T09:53:34;35.40;74.00
23731;DHT22;12046;44.702;10.622;2022-10-13T09:58:45;35.90;72.60
23731;DHT22;12046;44.702;10.622;2022-10-13T10:01:20;35.40;72.30
23731;DHT22;12046;44.702;10.622;2022-10-13T10:03:47;35.10;72.50
23731;DHT22;12046;44.702;10.622;2022-10-13T10:06:15;35.30;72.50
23731;DHT22;12046;44.702;10.622;2022-10-13T10:11:18;36.20;70.60
23731;DHT22;12046;44.702;10.622;2022-10-13T10:13:45;36.00;70.30
23731;DHT22;12046;44.702;10.622;2022-10-13T10:16:29;35.90;70.20
23731;DHT22;12046;44.702;10.622;2022-10-13T10:19:24;36.20;68.40
23731;DHT22;12046;44.702;10.622;2022-10-13T10:34:55;34.50;69.20
23731;DHT22;12046;44.702;10.622;2022-10-13T10:45:56;36.90;66.00
23731;DHT22;12046;44.702;10.622;2022-10-13T10:48:35;37.40;64.90
23731;DHT22;12046;44.702;10.622;2022-10-13T10:51:05;37.70;64.20
23731;DHT22;12046;44.702;10.622;2022-10-13T11:04:23;37.30;61.50
23731;DHT22;12046;44.702;10.622;2022-10-13T11:06:53;36.40;62.00
23731;DHT22;12046;44.702;10.622;2022-10-13T11:17:26;33.20;65.20
23731;DHT22;12046;44.702;10.622;2022-10-13T11:19:52;32.30;66.30
23731;DHT22;12046;44.702;10.622;2022-10-13T11:22:24;31.60;68.00
23731;DHT22;12046;44.702;10.622;2022-10-13T11:24:56;31.20;68.90
23731;DHT22;12046;44.702;10.622;2022-10-13T11:27:49;30.60;70.00
23731;DHT22;12046;44.702;10.622;2022-10-13T11:30:42;30.00;70.60
23731;DHT22;12046;44.702;10.622;2022-10-13T11:36:31;28.80;72.30
23731;DHT22;12046;44.702;10.622;2022-10-13T11:42:37;26.90;75.90
23731;DHT22;12046;44.702;10.622;2022-10-13T11:56:23;28.00;76.20
23731;DHT22;12046;44.702;10.622;2022-10-13T11:58:56;28.30;75.50
23731;DHT22;12046;44.702;10.622;2022-10-13T12:01:22;28.70;75.50
23731;DHT22;12046;44.702;10.622;2022-10-13T12:03:54;29.10;74.60
23731;DHT22;12046;44.702;10.622;2022-10-13T12:09:18;29.50;72.90
23731;DHT22;12046;44.702;10.622;2022-10-13T12:11:46;29.40;73.50
23731;DHT22;12046;44.702;10.622;2022-10-13T12:14:30;29.60;71.60
23731;DHT22;12046;44.702;10.622;2022-10-13T12:16:59;29.80;71.20
23731;DHT22;12046;44.702;10.622;2022-10-13T12:19:28;29.30;73.00
23731;DHT22;12046;44.702;10.622;2022-10-13T12:21:58;29.20;73.90
23731;DHT22;12046;44.702;10.622;2022-10-13T12:24:29;29.30;72.00
23731;DHT22;12046;44.702;10.622;2022-10-13T12:26:56;29.10;70.50
23731;DHT22;12046;44.702;10.622;2022-10-13T12:29:27;29.30;70.00
23731;DHT22;12046;44.702;10.622;2022-10-13T12:31:54;29.50;70.20
23731;DHT22;12046;44.702;10.622;2022-10-13T12:34:33;29.80;70.30
23731;DHT22;12046;44.702;10.622;2022-10-13T12:37:17;29.20;70.80
23731;DHT22;12046;44.702;10.622;2022-10-13T12:39:54;28.60;71.50
23731;DHT22;12046;44.702;10.622;2022-10-13T12:42:32;28.40;69.90
23731;DHT22;12046;44.702;10.622;2022-10-13T12:45:02;28.30;71.20
23731;DHT22;12046;44.702;10.622;2022-10-13T12:53:15;28.50;71.60
23731;DHT22;12046;44.702;10.622;2022-10-13T12:56:01;28.90;71.50
23731;DHT22;12046;44.702;10.622;2022-10-13T12:58:30;29.40;71.60
23731;DHT22;12046;44.702;10.622;2022-10-13T13:03:40;30.10;69.80
23731;DHT22;12046;44.702;10.622;2022-10-13T13:08:44;30.20;68.50
23731;DHT22;12046;44.702;10.622;2022-10-13T13:11:33;30.00;68.80
23731;DHT22;12046;44.702;10.622;2022-10-13T13:19:34;29.40;70.20
23731;DHT22;12046;44.702;10.622;2022-10-13T13:22:03;29.50;70.10
23731;DHT22;12046;44.702;10.622;2022-10-13T13:24:29;29.70;69.50
23731;DHT22;12046;44.702;10.622;2022-10-13T13:26:56;29.70;69.50
23731;DHT22;12046;44.702;10.622;2022-10-13T13:29:23;29.50;70.20
23731;DHT22;12046;44.702;10.622;2022-10-13T13:31:49;29.30;70.10
23731;DHT22;12046;44.702;10.622;2022-10-13T13:34:15;29.10;70.30
23731;DHT22;12046;44.702;10.622;2022-10-13T13:36:41;29.20;70.60
23731;DHT22;12046;44.702;10.622;2022-10-13T13:39:14;29.30;70.80
23731;DHT22;12046;44.702;10.622;2022-10-13T13:41:43;29.50;70.00
23731;DHT22;12046;44.702;10.622;2022-10-13T13:44:09;29.60;70.00
23731;DHT22;12046;44.702;10.622;2022-10-13T13:46:35;29.40;70.00
23731;DHT22;12046;44.702;10.622;2022-10-13T13:49:01;29.30;70.10
23731;DHT22;12046;44.702;10.622;2022-10-13T13:51:28;29.00;69.40
23731;DHT22;12046;44.702;10.622;2022-10-13T13:53:54;28.60;70.60
23731;DHT22;12046;44.702;10.622;2022-10-13T13:56:20;28.10;71.70
23731;DHT22;12046;44.702;10.622;2022-10-13T13:58:47;27.90;72.30
23731;DHT22;12046;44.702;10.622;2022-10-13T14:01:13;27.90;72.00
23731;DHT22;12046;44.702;10.622;2022-10-13T14:03:40;28.00;71.70
23731;DHT22;12046;44.702;10.622;2022-10-13T14:06:06;28.00;71.80
23731;DHT22;12046;44.702;10.622;2022-10-13T14:08:33;28.00;72.10
23731;DHT22;12046;44.702;10.622;2022-10-13T14:11:00;27.80;72.50
23731;DHT22;12046;44.702;10.622;2022-10-13T14:13:30;27.70;72.50
23731;DHT22;12046;44.702;10.622;2022-10-13T14:15:57;27.80;72.70
23731;DHT22;12046;44.702;10.622;2022-10-13T14:18:24;27.80;72.20
23731;DHT22;12046;44.702;10.622;2022-10-13T14:20:50;27.90;72.20
23731;DHT22;12046;44.702;10.622;2022-10-13T14:23:16;27.90;71.50
23731;DHT22;12046;44.702;10.622;2022-10-13T14:25:43;27.80;71.00
23731;DHT22;12046;44.702;10.622;2022-10-13T14:28:09;27.40;72.00
23731;DHT22;12046;44.702;10.622;2022-10-13T14:30:38;27.20;74.30
23731;DHT22;12046;44.702;10.622;2022-10-13T14:33:05;27.00;74.20
23731;DHT22;12046;44.702;10.622;2022-10-13T14:35:31;26.90;74.60
23731;DHT22;12046;44.702;10.622;2022-10-13T14:37:57;27.00;74.10
23731;DHT22;12046;44.702;10.622;2022-10-13T14:40:23;26.90;74.00
23731;DHT22;12046;44.702;10.622;2022-10-13T14:42:49;26.90;74.10
23731;DHT22;12046;44.702;10.622;2022-10-13T14:45:15;27.00;73.60
23731;DHT22;12046;44.702;10.622;2022-10-13T14:47:42;27.20;73.40
23731;DHT22;12046;44.702;10.622;2022-10-13T14:50:09;27.40;72.90
23731;DHT22;12046;44.702;10.622;2022-10-13T14:52:35;27.30;72.50
23731;DHT22;12046;44.702;10.622;2022-10-13T14:55:05;27.00;73.20
23731;DHT22;12046;44.702;10.622;2022-10-13T14:57:51;26.70;73.90
23731;DHT22;12046;44.702;10.622;2022-10-13T15:00:19;26.40;74.70
23731;DHT22;12046;44.702;10.622;2022-10-13T15:02:48;26.20;75.10
23731;DHT22;12046;44.702;10.622;2022-10-13T15:05:29;25.90;75.70
23731;DHT22;12046;44.702;10.622;2022-10-13T15:08:02;25.70;75.80
23731;DHT22;12046;44.702;10.622;2022-10-13T15:10:33;25.50;76.60
23731;DHT22;12046;44.702;10.622;2022-10-13T15:13:04;25.30;77.10
23731;DHT22;12046;44.702;10.622;2022-10-13T15:15:31;25.00;77.80
23731;DHT22;12046;44.702;10.622;2022-10-13T15:17:58;24.80;78.30
23731;DHT22;12046;44.702;10.622;2022-10-13T15:20:24;24.70;79.10
23731;DHT22;12046;44.702;10.622;2022-10-13T15:22:50;24.50;79.90
23731;DHT22;12046;44.702;10.622;2022-10-13T15:25:33;24.20;80.70
23731;DHT22;12046;44.702;10.622;2022-10-13T15:28:01;24.10;81.30
23731;DHT22;12046;44.702;10.622;2022-10-13T15:30:32;24.10;81.70
23731;DHT22;12046;44.702;10.622;2022-10-13T15:32:59;24.20;83.20
23731;DHT22;12046;44.702;10.622;2022-10-13T15:35:29;24.20;83.30
23731;DHT22;12046;44.702;10.622;2022-10-13T15:37:56;24.20;83.10
23731;DHT22;12046;44.702;10.622;2022-10-13T15:40:22;24.20;83.10
23731;DHT22;12046;44.702;10.622;2022-10-13T15:42:49;24.10;82.90
23731;DHT22;12046;44.702;10.622;2022-10-13T15:45:24;24.10;82.90
23731;DHT22;12046;44.702;10.622;2022-10-13T15:47:51;24.10;83.30
23731;DHT22;12046;44.702;10.622;2022-10-13T15:50:17;24.00;83.80
23731;DHT22;12046;44.702;10.622;2022-10-13T15:52:44;24.00;82.90
23731;DHT22;12046;44.702;10.622;2022-10-13T15:55:20;23.90;82.30
23731;DHT22;12046;44.702;10.622;2022-10-13T15:57:46;23.80;83.00
23731;DHT22;12046;44.702;10.622;2022-10-13T16:00:13;23.70;83.10
23731;DHT22;12046;44.702;10.622;2022-10-13T16:02:40;23.60;82.80
23731;DHT22;12046;44.702;10.622;2022-10-13T16:05:08;23.60;83.20
23731;DHT22;12046;44.702;10.622;2022-10-13T16:07:34;23.60;83.60
23731;DHT22;12046;44.702;10.622;2022-10-13T16:10:01;23.60;84.40
23731;DHT22;12046;44.702;10.622;2022-10-13T16:12:28;23.50;84.80
23731;DHT22;12046;44.702;10.622;2022-10-13T16:14:54;23.50;85.40
23731;DHT22;12046;44.702;10.622;2022-10-13T16:17:20;23.40;85.40
23731;DHT22;12046;44.702;10.622;2022-10-13T16:19:46;23.40;85.50
23731;DHT22;12046;44.702;10.622;2022-10-13T16:22:12;23.30;86.10
23731;DHT22;12046;44.702;10.622;2022-10-13T16:24:39;23.20;86.20
23731;DHT22;12046;44.702;10.622;2022-10-13T16:27:06;23.20;86.10
23731;DHT22;12046;44.702;10.622;2022-10-13T16:29:32;23.10;86.00
23731;DHT22;12046;44.702;10.622;2022-10-13T16:31:58;23.10;86.30
23731;DHT22;12046;44.702;10.622;2022-10-13T16:34:26;23.00;86.90
23731;DHT22;12046;44.702;10.622;2022-10-13T16:36:52;22.90;88.10
23731;DHT22;12046;44.702;10.622;2022-10-13T16:39:18;22.90;87.80
23731;DHT22;12046;44.702;10.622;2022-10-13T16:41:45;22.80;87.30
23731;DHT22;12046;44.702;10.622;2022-10-13T16:44:14;22.70;87.20
23731;DHT22;12046;44.702;10.622;2022-10-13T16:46:42;22.60;88.10
23731;DHT22;12046;44.702;10.622;2022-10-13T16:49:09;22.60;88.60
23731;DHT22;12046;44.702;10.622;2022-10-13T16:51:37;22.50;88.70
23731;DHT22;12046;44.702;10.622;2022-10-13T16:54:03;22.50;88.50
23731;DHT22;12046;44.702;10.622;2022-10-13T16:56:30;22.40;88.40
23731;DHT22;12046;44.702;10.622;2022-10-13T16:58:59;22.40;89.00
23731;DHT22;12046;44.702;10.622;2022-10-13T17:01:26;22.40;89.80
23731;DHT22;12046;44.702;10.622;2022-10-13T17:03:52;22.40;90.00
23731;DHT22;12046;44.702;10.622;2022-10-13T17:06:20;22.40;90.00
23731;DHT22;12046;44.702;10.622;2022-10-13T17:08:49;22.30;89.00
23731;DHT22;12046;44.702;10.622;2022-10-13T17:11:20;22.20;89.10
23731;DHT22;12046;44.702;10.622;2022-10-13T17:13:47;22.20;90.20
23731;DHT22;12046;44.702;10.622;2022-10-13T17:16:13;22.20;90.80
23731;DHT22;12046;44.702;10.622;2022-10-13T17:18:40;22.10;91.00
23731;DHT22;12046;44.702;10.622;2022-10-13T17:21:06;22.10;91.20
23731;DHT22;12046;44.702;10.622;2022-10-13T17:23:36;22.00;91.40
23731;DHT22;12046;44.702;10.622;2022-10-13T17:26:05;22.00;91.40
23731;DHT22;12046;44.702;10.622;2022-10-13T17:28:33;21.80;91.40
23731;DHT22;12046;44.702;10.622;2022-10-13T17:31:32;21.70;91.80
23731;DHT22;12046;44.702;10.622;2022-10-13T17:33:51;21.70;92.30
23731;DHT22;12046;44.702;10.622;2022-10-13T17:36:20;21.60;92.70